createdAt,value
2023-02-08T00:00:06.370Z,13.00
2023-02-08T00:02:34.249Z,12.95
2023-02-08T00:05:00.776Z,13.13
2023-02-08T00:07:27.577Z,12.60
2023-02-08T00:09:54.221Z,12.68
2023-02-08T00:12:20.827Z,12.63
2023-02-08T00:14:47.471Z,13.02
2023-02-08T00:17:14.131Z,12.50
2023-02-08T00:19:40.765Z,11.43
2023-02-08T00:22:07.439Z,11.63
2023-02-08T00:24:34.032Z,12.35
2023-02-08T00:27:00.565Z,12.18
2023-02-08T00:29:27.235Z,12.13
2023-02-08T00:31:53.847Z,12.15
2023-02-08T00:34:20.424Z,10.63
2023-02-08T00:36:47.152Z,11.55
2023-02-08T00:39:13.846Z,10.55
2023-02-08T00:41:40.845Z,10.30
2023-02-08T00:44:07.507Z,10.02
2023-02-08T00:46:35.375Z,10.40
2023-02-08T00:49:02.016Z,10.50
2023-02-08T00:51:28.680Z,11.00
2023-02-08T00:53:55.295Z,10.65
2023-02-08T00:56:22.650Z,9.05
2023-02-08T00:58:49.299Z,9.60
2023-02-08T01:01:17.085Z,8.60
2023-02-08T01:03:44.632Z,8.73
2023-02-08T01:06:15.309Z,9.40
2023-02-08T01:08:42.020Z,9.40
2023-02-08T01:11:11.578Z,9.77
2023-02-08T01:13:38.716Z,8.52
2023-02-08T01:16:16.835Z,9.45
2023-02-08T01:18:46.202Z,8.98
2023-02-08T01:21:19.078Z,9.18
2023-02-08T01:23:46.567Z,8.63
2023-02-08T01:26:15.005Z,9.05
2023-02-08T01:28:41.734Z,9.73
2023-02-08T01:31:11.942Z,8.85
2023-02-08T01:33:39.048Z,8.38
2023-02-08T01:36:07.202Z,9.20
2023-02-08T01:38:35.268Z,8.57
2023-02-08T01:41:03.424Z,10.27
2023-02-08T01:43:32.863Z,8.75
2023-02-08T01:45:59.597Z,8.35
2023-02-08T01:48:31.811Z,9.15
2023-02-08T01:51:03.409Z,8.95
2023-02-08T01:53:33.401Z,8.77
2023-02-08T01:56:04.072Z,8.52
2023-02-08T01:58:34.112Z,9.38
2023-02-08T02:01:02.672Z,9.70
2023-02-08T02:03:29.297Z,8.32
2023-02-08T02:06:03.255Z,9.85
2023-02-08T02:08:31.220Z,8.55
2023-02-08T02:10:58.043Z,8.85
2023-02-08T02:13:26.401Z,8.85
2023-02-08T02:15:54.712Z,9.50
2023-02-08T02:18:29.724Z,9.10
2023-02-08T02:21:11.377Z,8.45
2023-02-08T02:24:18.799Z,8.70
2023-02-08T02:26:54.543Z,9.32
2023-02-08T02:29:44.289Z,8.57
2023-02-08T02:32:30.287Z,8.95
2023-02-08T02:35:05.726Z,9.15
2023-02-08T02:37:40.675Z,9.02
2023-02-08T02:40:36.727Z,8.57
2023-02-08T02:43:32.055Z,9.25
2023-02-08T02:46:25.679Z,8.45
2023-02-08T02:49:15.300Z,8.40
2023-02-08T02:51:50.887Z,8.35
2023-02-08T02:54:27.117Z,9.65
2023-02-08T02:57:02.054Z,8.60
2023-02-08T02:59:32.313Z,8.05
2023-02-08T03:01:58.906Z,8.85
2023-02-08T03:04:34.595Z,8.68
2023-02-08T03:07:01.191Z,8.65
2023-02-08T03:10:01.819Z,8.98
2023-02-08T03:13:06.073Z,8.52
2023-02-08T03:16:14.297Z,8.45
2023-02-08T03:19:19.403Z,8.70
2023-02-08T03:22:02.286Z,7.60
2023-02-08T03:24:48.329Z,8.40
2023-02-08T03:28:08.766Z,8.15
2023-02-08T03:30:53.197Z,8.30
2023-02-08T03:33:34.547Z,9.48
2023-02-08T03:36:17.441Z,7.60
2023-02-08T03:38:47.344Z,8.07
2023-02-08T03:41:19.709Z,8.38
2023-02-08T03:44:09.545Z,8.50
2023-02-08T03:46:48.656Z,8.63
2023-02-08T03:49:19.861Z,8.90
2023-02-08T03:51:46.654Z,8.18
2023-02-08T03:54:19.041Z,8.77
2023-02-08T03:56:54.467Z,7.22
2023-02-08T03:59:26.007Z,8.63
2023-02-08T04:02:01.575Z,7.97
2023-02-08T04:04:34.119Z,8.38
2023-02-08T04:07:01.062Z,9.10
2023-02-08T04:09:27.601Z,8.27
2023-02-08T04:11:54.158Z,8.75
2023-02-08T04:14:20.663Z,7.80
2023-02-08T04:16:47.182Z,8.32
2023-02-08T04:19:13.701Z,8.23
2023-02-08T04:21:40.297Z,7.95
2023-02-08T04:24:07.043Z,7.22
2023-02-08T04:26:33.659Z,8.50
2023-02-08T04:29:00.287Z,9.52
2023-02-08T04:31:27.274Z,7.47
2023-02-08T04:33:53.985Z,7.75
2023-02-08T04:36:20.604Z,7.53
2023-02-08T04:38:47.271Z,8.63
2023-02-08T04:41:13.772Z,8.13
2023-02-08T04:43:40.433Z,8.05
2023-02-08T04:46:07.552Z,8.65
2023-02-08T04:48:34.069Z,8.52
2023-02-08T04:51:00.646Z,7.75
2023-02-08T04:53:27.338Z,7.97
2023-02-08T04:55:54.161Z,8.13
2023-02-08T04:58:20.883Z,7.70
2023-02-08T05:00:47.405Z,8.43
2023-02-08T05:03:15.030Z,7.93
2023-02-08T05:05:41.751Z,8.73
2023-02-08T05:08:08.381Z,7.65
2023-02-08T05:10:35.012Z,8.57
2023-02-08T05:13:01.629Z,7.90
2023-02-08T05:15:28.289Z,8.02
2023-02-08T05:17:54.928Z,8.10
2023-02-08T05:20:21.605Z,8.20
2023-02-08T05:22:48.552Z,9.00
2023-02-08T05:25:15.167Z,8.52
2023-02-08T05:27:41.751Z,9.57
2023-02-08T05:30:08.707Z,9.25
2023-02-08T05:32:35.396Z,8.15
2023-02-08T05:35:01.989Z,8.70
2023-02-08T05:37:28.550Z,8.88
2023-02-08T05:39:55.085Z,8.93
2023-02-08T05:42:22.106Z,8.40
2023-02-08T05:44:48.669Z,8.65
2023-02-08T05:47:15.313Z,8.30
2023-02-08T05:49:41.871Z,8.35
2023-02-08T05:52:08.365Z,8.93
2023-02-08T05:54:35.011Z,8.32
2023-02-08T05:57:01.942Z,8.52
2023-02-08T05:59:28.843Z,7.95
2023-02-08T06:01:55.396Z,8.95
2023-02-08T06:04:22.013Z,9.00
2023-02-08T06:06:48.573Z,8.25
2023-02-08T06:09:15.198Z,9.05
2023-02-08T06:11:41.805Z,8.40
2023-02-08T06:14:08.348Z,8.20
2023-02-08T06:16:34.942Z,8.07
2023-02-08T06:19:01.615Z,8.13
2023-02-08T06:21:28.425Z,8.20
2023-02-08T06:23:55.525Z,8.48
2023-02-08T06:26:22.167Z,8.82
2023-02-08T06:28:48.746Z,8.23
2023-02-08T06:31:15.342Z,9.07
2023-02-08T06:33:41.946Z,9.32
2023-02-08T06:36:08.726Z,9.27
2023-02-08T06:38:35.839Z,9.48
2023-02-08T06:41:02.407Z,9.00
2023-02-08T06:43:28.994Z,9.82
2023-02-08T06:45:55.642Z,8.65
2023-02-08T06:48:22.238Z,8.85
2023-02-08T06:50:48.820Z,9.93
2023-02-08T06:53:15.449Z,9.15
2023-02-08T06:55:41.961Z,9.80
2023-02-08T06:58:08.610Z,9.35
2023-02-08T07:00:35.256Z,9.02
2023-02-08T07:03:01.812Z,9.70
2023-02-08T07:05:28.424Z,9.50
2023-02-08T07:07:55.028Z,10.25
2023-02-08T07:10:21.750Z,9.90
2023-02-08T07:12:48.334Z,9.00
2023-02-08T07:15:15.158Z,9.75
2023-02-08T07:17:41.788Z,9.32
2023-02-08T07:20:08.987Z,9.52
2023-02-08T07:22:35.609Z,9.40
2023-02-08T07:25:02.140Z,10.02
2023-02-08T07:27:28.910Z,8.73
2023-02-08T07:29:55.494Z,9.45
2023-02-08T07:32:22.307Z,9.25
2023-02-08T07:34:48.882Z,8.77
2023-02-08T07:37:15.480Z,9.18
2023-02-08T07:39:42.124Z,9.10
2023-02-08T07:42:09.830Z,9.70
2023-02-08T07:44:47.541Z,9.25
2023-02-08T07:47:14.166Z,9.52
2023-02-08T07:49:40.713Z,9.38
2023-02-08T07:52:07.235Z,9.45
2023-02-08T07:54:33.766Z,9.52
2023-02-08T07:57:02.525Z,9.43
2023-02-08T07:59:30.255Z,9.43
2023-02-08T08:01:56.864Z,9.90
2023-02-08T08:04:23.545Z,8.57
2023-02-08T08:06:51.445Z,9.55
2023-02-08T08:09:18.043Z,9.55
2023-02-08T08:11:44.606Z,9.70
2023-02-08T08:14:11.187Z,9.23
2023-02-08T08:16:37.804Z,9.48
2023-02-08T08:19:04.449Z,8.63
2023-02-08T08:21:30.973Z,9.40
2023-02-08T08:23:57.490Z,9.30
2023-02-08T08:26:24.022Z,9.35
2023-02-08T08:28:50.638Z,9.52
2023-02-08T08:31:20.114Z,9.13
2023-02-08T08:33:47.105Z,8.90
2023-02-08T08:36:14.069Z,9.40
2023-02-08T08:38:41.078Z,9.43
2023-02-08T08:41:14.600Z,9.05
2023-02-08T08:43:41.293Z,9.65
2023-02-08T08:46:08.498Z,9.73
2023-02-08T08:48:36.079Z,10.18
2023-02-08T08:51:03.084Z,9.00
2023-02-08T08:53:29.705Z,8.80
2023-02-08T08:55:56.265Z,8.73
2023-02-08T08:58:22.958Z,8.25
2023-02-08T09:00:50.070Z,9.18
2023-02-08T09:03:16.786Z,9.50
2023-02-08T09:05:43.350Z,8.55
2023-02-08T09:08:09.968Z,9.07
2023-02-08T09:10:36.516Z,9.65
2023-02-08T09:13:03.344Z,9.00
2023-02-08T09:15:30.065Z,8.63
2023-02-08T09:17:56.767Z,10.00
2023-02-08T09:20:23.966Z,9.50
2023-02-08T09:22:50.821Z,9.23
2023-02-08T09:25:17.573Z,9.35
2023-02-08T09:27:44.146Z,9.43
2023-02-08T09:30:11.165Z,9.20
2023-02-08T09:32:39.778Z,9.30
2023-02-08T09:35:08.321Z,8.75
2023-02-08T09:37:35.308Z,8.50
2023-02-08T09:40:02.099Z,8.85
2023-02-08T09:42:40.762Z,9.00
2023-02-08T09:45:51.119Z,8.55
2023-02-08T09:48:36.042Z,7.95
2023-02-08T09:51:38.384Z,9.10
2023-02-08T09:54:22.827Z,7.80
2023-02-08T09:56:50.565Z,8.57
2023-02-08T09:59:23.075Z,7.88
2023-02-08T10:01:53.719Z,7.22
2023-02-08T10:04:32.391Z,8.65
2023-02-08T10:06:59.026Z,8.40
2023-02-08T10:09:27.184Z,8.73
2023-02-08T10:12:25.987Z,8.13
2023-02-08T10:15:06.134Z,8.05
2023-02-08T10:17:51.110Z,7.60
2023-02-08T10:20:40.891Z,7.32
2023-02-08T10:23:33.756Z,7.60
2023-02-08T10:26:00.286Z,8.07
2023-02-08T10:29:28.487Z,7.40
2023-02-08T10:32:07.030Z,7.50
2023-02-08T10:34:42.640Z,8.20
2023-02-08T10:37:19.941Z,7.85
2023-02-08T10:39:49.274Z,7.50
2023-02-08T10:42:18.978Z,7.57
2023-02-08T10:45:22.777Z,7.82
2023-02-08T10:47:56.634Z,8.10
2023-02-08T10:50:34.041Z,7.15
2023-02-08T10:53:00.765Z,7.47
2023-02-08T10:55:27.513Z,8.10
2023-02-08T10:57:59.634Z,8.15
2023-02-08T11:00:33.360Z,7.38
2023-02-08T11:03:12.752Z,7.55
2023-02-08T11:05:41.084Z,7.13
2023-02-08T11:08:17.604Z,7.63
2023-02-08T11:10:56.339Z,7.88
2023-02-08T11:13:26.721Z,7.45
2023-02-08T11:16:00.050Z,7.38
2023-02-08T11:18:31.996Z,6.75
2023-02-08T11:21:01.957Z,6.63
2023-02-08T11:23:34.714Z,7.35
2023-02-08T11:26:20.941Z,6.40
2023-02-08T11:28:59.521Z,6.68
2023-02-08T11:31:26.306Z,7.25
2023-02-08T11:34:10.496Z,7.32
2023-02-08T11:36:44.459Z,6.80
2023-02-08T11:39:27.765Z,6.95
2023-02-08T11:41:58.725Z,6.90
2023-02-08T11:44:37.303Z,7.05
2023-02-08T11:47:08.931Z,6.57
2023-02-08T11:49:41.763Z,6.78
2023-02-08T11:52:21.376Z,6.68
2023-02-08T11:54:48.575Z,6.70
2023-02-08T11:57:32.604Z,6.57
2023-02-08T12:00:26.458Z,6.60
2023-02-08T12:03:03.933Z,6.22
2023-02-08T12:06:01.786Z,6.75
2023-02-08T12:08:41.467Z,6.60
2023-02-08T12:11:28.885Z,5.60
2023-02-08T12:14:14.068Z,5.88
2023-02-08T12:16:54.436Z,6.78
2023-02-08T12:19:27.013Z,5.63
2023-02-08T12:25:01.116Z,4.70
2023-02-08T12:27:42.881Z,4.28
2023-02-08T12:30:27.214Z,4.65
2023-02-08T12:33:18.546Z,4.28
2023-02-08T12:36:15.229Z,4.75
2023-02-08T12:39:17.072Z,4.70
2023-02-08T12:42:04.742Z,4.03
2023-02-08T12:44:48.465Z,5.03
2023-02-08T12:47:20.951Z,5.43
2023-02-08T12:50:32.495Z,5.38
2023-02-08T12:53:21.838Z,5.60
2023-02-08T12:55:51.110Z,5.60
2023-02-08T12:58:47.060Z,5.10
2023-02-08T13:01:24.446Z,4.75
2023-02-08T13:04:09.076Z,5.30
2023-02-08T13:06:47.067Z,5.35
2023-02-08T13:09:35.835Z,5.10
2023-02-08T13:12:12.768Z,4.63
2023-02-08T13:14:47.526Z,4.75
2023-02-08T13:17:23.749Z,5.32
2023-02-08T13:20:23.217Z,5.22
2023-02-08T13:22:52.884Z,5.30
2023-02-08T13:25:31.408Z,5.13
2023-02-08T13:28:06.840Z,5.30
2023-02-08T13:30:39.891Z,5.05
2023-02-08T13:33:20.790Z,5.32
2023-02-08T13:35:52.966Z,4.35
2023-02-08T13:38:32.651Z,5.28
2023-02-08T13:41:21.121Z,4.55
2023-02-08T13:43:56.419Z,5.60
2023-02-08T13:46:25.968Z,5.15
2023-02-08T13:48:59.982Z,5.60
2023-02-08T13:51:32.755Z,5.10
2023-02-08T13:54:02.417Z,5.10
2023-02-08T13:56:49.731Z,5.00
2023-02-08T13:59:37.434Z,4.60
2023-02-08T14:02:14.431Z,5.07
2023-02-08T14:04:43.375Z,4.65
2023-02-08T14:07:09.839Z,4.60
2023-02-08T14:09:47.939Z,4.65
2023-02-08T14:12:36.233Z,4.07
2023-02-08T14:15:15.137Z,4.68
2023-02-08T14:17:47.324Z,4.40
2023-02-08T14:20:32.268Z,4.22
2023-02-08T14:23:03.196Z,4.28
2023-02-08T14:25:46.964Z,3.80
2023-02-08T14:28:40.239Z,3.83
2023-02-08T14:31:10.078Z,4.25
2023-02-08T14:33:42.747Z,3.95
2023-02-08T14:39:24.337Z,3.72
2023-02-08T14:42:00.112Z,3.30
2023-02-08T14:44:38.865Z,3.63
2023-02-08T14:47:29.084Z,3.65
2023-02-08T14:50:10.843Z,2.85
2023-02-08T14:52:39.245Z,3.03
2023-02-08T14:55:26.570Z,3.38
2023-02-08T14:58:00.649Z,3.08
2023-02-08T15:00:33.164Z,3.60
2023-02-08T15:03:00.912Z,3.45
2023-02-08T15:05:37.657Z,3.08
2023-02-08T15:08:05.205Z,2.92
2023-02-08T15:10:33.162Z,3.28
2023-02-08T15:13:06.237Z,3.50
2023-02-08T15:15:36.647Z,2.58
2023-02-08T15:18:05.829Z,3.40
2023-02-08T15:20:35.468Z,3.45
2023-02-08T15:23:18.023Z,3.00
2023-02-08T15:25:53.548Z,3.35
2023-02-08T15:28:22.633Z,3.28
2023-02-08T15:30:58.206Z,3.05
2023-02-08T15:33:25.527Z,3.08
2023-02-08T15:35:57.500Z,3.00
2023-02-08T15:38:24.493Z,3.03
2023-02-08T15:41:12.108Z,2.80
2023-02-08T15:43:40.204Z,2.72
2023-02-08T15:46:20.208Z,2.58
2023-02-08T15:48:48.704Z,2.75
2023-02-08T15:51:16.114Z,2.80
2023-02-08T15:53:45.664Z,2.75
2023-02-08T15:56:35.367Z,3.40
2023-02-08T15:59:07.341Z,2.97
2023-02-08T16:01:34.428Z,2.63
2023-02-08T16:04:12.278Z,3.00
2023-02-08T16:06:45.825Z,3.17
2023-02-08T16:09:20.512Z,2.67
2023-02-08T16:11:50.012Z,2.28
2023-02-08T16:14:19.554Z,4.30
2023-02-08T16:16:53.393Z,4.53
2023-02-08T16:19:23.103Z,4.22
2023-02-08T16:21:50.333Z,4.75
2023-02-08T16:24:16.930Z,3.50
2023-02-08T16:26:47.476Z,3.33
2023-02-08T16:29:29.772Z,2.63
2023-02-08T16:32:13.333Z,3.13
2023-02-08T16:34:40.601Z,3.08
2023-02-08T16:37:22.859Z,4.05
2023-02-08T16:39:59.350Z,4.07
2023-02-08T16:42:33.931Z,4.15
2023-02-08T16:45:16.736Z,4.22
2023-02-08T16:50:26.904Z,11.60
2023-02-08T16:52:56.437Z,13.93
2023-02-08T16:55:27.066Z,8.98
2023-02-08T16:57:56.502Z,7.72
2023-02-08T17:00:27.807Z,8.32
2023-02-08T17:02:55.165Z,6.47
2023-02-08T17:05:24.027Z,10.88
2023-02-08T17:07:51.220Z,22.85
2023-02-08T17:10:32.181Z,49.08
2023-02-08T17:13:17.524Z,13.85
2023-02-08T17:15:47.480Z,8.25
2023-02-08T17:18:14.445Z,13.68
2023-02-08T17:20:41.469Z,11.65
2023-02-08T17:23:08.090Z,12.38
2023-02-08T17:25:35.724Z,11.40
2023-02-08T17:28:05.491Z,12.15
2023-02-08T17:30:36.006Z,9.80
2023-02-08T17:33:03.967Z,7.63
2023-02-08T17:35:30.957Z,11.57
2023-02-08T17:37:58.410Z,13.73
2023-02-08T17:40:32.484Z,56.88
2023-02-08T17:43:03.337Z,43.50
2023-02-08T17:45:30.370Z,27.88
2023-02-08T17:48:00.014Z,22.48
2023-02-08T17:50:27.050Z,14.90
2023-02-08T17:52:54.114Z,17.80
2023-02-08T17:55:21.002Z,12.55
2023-02-08T17:57:48.068Z,9.88
2023-02-08T18:00:20.821Z,8.25
2023-02-08T18:02:50.215Z,8.48
2023-02-08T18:05:25.501Z,7.57
2023-02-08T18:07:54.673Z,6.82
2023-02-08T18:10:22.680Z,6.85
2023-02-08T18:12:49.448Z,6.25
2023-02-08T18:15:20.679Z,5.93
2023-02-08T18:17:48.452Z,6.03
2023-02-08T18:20:15.932Z,5.55
2023-02-08T18:22:43.187Z,5.05
2023-02-08T18:25:11.048Z,5.25
2023-02-08T18:27:38.046Z,4.22
2023-02-08T18:30:05.271Z,4.25
2023-02-08T18:32:31.820Z,3.95
2023-02-08T18:34:58.662Z,3.95
2023-02-08T18:37:25.480Z,4.05
2023-02-08T18:39:52.245Z,4.05
2023-02-08T18:42:18.936Z,4.60
2023-02-08T18:44:45.758Z,4.22
2023-02-08T18:47:12.484Z,4.63
2023-02-08T18:49:40.664Z,4.28
2023-02-08T18:52:09.382Z,5.95
2023-02-08T18:54:38.337Z,6.03
2023-02-08T18:57:06.229Z,5.75
2023-02-08T18:59:33.446Z,4.82
2023-02-08T19:02:01.620Z,4.50
2023-02-08T19:04:28.966Z,4.25
2023-02-08T19:06:55.496Z,5.22
2023-02-08T19:09:21.993Z,5.68
2023-02-08T19:11:48.885Z,4.53
2023-02-08T19:14:15.876Z,4.82
2023-02-08T19:16:43.148Z,5.38
2023-02-08T19:19:10.100Z,4.10
2023-02-08T19:21:36.811Z,3.38
2023-02-08T19:24:03.554Z,4.30
2023-02-08T19:26:33.387Z,4.82
2023-02-08T19:29:03.250Z,6.13
2023-02-08T19:31:30.825Z,6.38
2023-02-08T19:33:59.716Z,4.70
2023-02-08T19:36:30.328Z,3.90
2023-02-08T19:38:57.874Z,3.80
2023-02-08T19:41:28.253Z,3.88
2023-02-08T19:43:55.014Z,3.75
2023-02-08T19:46:23.968Z,4.20
2023-02-08T19:48:52.159Z,4.93
2023-02-08T19:51:19.393Z,5.95
2023-02-08T19:53:46.704Z,6.25
2023-02-08T19:56:15.792Z,5.53
2023-02-08T19:58:42.646Z,6.80
2023-02-08T20:01:19.527Z,7.30
2023-02-08T20:03:47.546Z,7.95
2023-02-08T20:06:15.447Z,6.60
2023-02-08T20:08:42.151Z,5.55
2023-02-08T20:11:19.868Z,5.35
2023-02-08T20:13:47.161Z,5.47
2023-02-08T20:16:14.442Z,4.95
2023-02-08T20:18:41.152Z,4.63
2023-02-08T20:21:08.527Z,5.63
2023-02-08T20:23:36.094Z,5.25
2023-02-08T20:26:10.633Z,5.72
2023-02-08T20:28:41.444Z,5.18
2023-02-08T20:31:14.165Z,4.97
2023-02-08T20:33:41.209Z,7.15
2023-02-08T20:36:16.170Z,6.40
2023-02-08T20:38:43.073Z,6.45
2023-02-08T20:41:14.584Z,7.32
2023-02-08T20:43:42.802Z,20.00
2023-02-08T20:46:14.395Z,11.07
2023-02-08T20:48:41.063Z,14.88
2023-02-08T20:51:10.537Z,9.98
2023-02-08T20:53:38.896Z,8.27
2023-02-08T20:56:07.282Z,6.22
2023-02-08T20:58:34.113Z,6.00
2023-02-08T21:01:01.206Z,4.72
2023-02-08T21:03:27.869Z,6.55
2023-02-08T21:05:54.495Z,5.72
2023-02-08T21:08:21.071Z,6.53
2023-02-08T21:10:47.615Z,5.85
2023-02-08T21:13:14.184Z,6.18
2023-02-08T21:15:44.095Z,5.80
2023-02-08T21:18:12.537Z,6.60
2023-02-08T21:20:40.291Z,5.57
2023-02-08T21:23:07.502Z,5.43
2023-02-08T21:25:34.100Z,6.75
2023-02-08T21:28:00.881Z,7.70
2023-02-08T21:30:27.606Z,9.60
2023-02-08T21:32:54.253Z,8.05
2023-02-08T21:35:20.870Z,9.25
2023-02-08T21:37:47.541Z,8.45
2023-02-08T21:40:14.301Z,7.43
2023-02-08T21:42:40.935Z,6.63
2023-02-08T21:45:09.715Z,6.28
2023-02-08T21:47:36.887Z,7.43
2023-02-08T21:50:22.776Z,6.30
2023-02-08T21:53:07.785Z,6.65
2023-02-08T21:55:34.321Z,6.57
2023-02-08T21:58:00.995Z,6.47
2023-02-08T22:00:27.556Z,7.20
2023-02-08T22:02:54.103Z,7.07
2023-02-08T22:05:39.030Z,5.85
2023-02-08T22:08:05.638Z,6.10
2023-02-08T22:10:33.326Z,8.90
2023-02-08T22:13:00.212Z,6.95
2023-02-08T22:15:30.089Z,5.95
2023-02-08T22:17:59.106Z,5.70
2023-02-08T22:20:26.793Z,6.20
2023-02-08T22:22:55.311Z,6.40
2023-02-08T22:25:23.049Z,6.65
2023-02-08T22:27:49.786Z,8.32
2023-02-08T22:30:18.455Z,6.82
2023-02-08T22:32:47.931Z,6.97
2023-02-08T22:35:16.371Z,6.93
2023-02-08T22:37:43.397Z,6.72
2023-02-08T22:40:11.833Z,6.50
2023-02-08T22:42:39.790Z,6.78
2023-02-08T22:45:06.649Z,7.15
2023-02-08T22:47:34.243Z,7.40
2023-02-08T22:50:01.428Z,7.15
2023-02-08T22:52:28.269Z,7.28
2023-02-08T22:54:56.023Z,7.97
2023-02-08T22:57:22.616Z,7.13
2023-02-08T22:59:49.295Z,7.18
2023-02-08T23:02:18.768Z,6.43
2023-02-08T23:04:45.370Z,6.82
2023-02-08T23:07:11.920Z,6.00
2023-02-08T23:09:38.843Z,7.20
2023-02-08T23:12:05.676Z,6.80
2023-02-08T23:14:32.879Z,5.75
2023-02-08T23:16:59.884Z,5.80
2023-02-08T23:19:27.034Z,6.22
2023-02-08T23:21:53.842Z,6.43
2023-02-08T23:24:20.472Z,6.18
2023-02-08T23:26:47.764Z,6.05
2023-02-08T23:29:14.593Z,7.25
2023-02-08T23:31:41.398Z,6.57
2023-02-08T23:34:08.292Z,5.75
2023-02-08T23:36:34.826Z,5.93
2023-02-08T23:39:01.540Z,6.00
2023-02-08T23:41:29.297Z,6.25
2023-02-08T23:43:55.910Z,6.63
2023-02-08T23:46:25.992Z,6.13
2023-02-08T23:48:53.081Z,6.57
2023-02-08T23:51:22.922Z,6.47
2023-02-08T23:53:50.688Z,11.57
2023-02-08T23:56:29.541Z,7.82
2023-02-08T23:58:57.958Z,6.57
